sensor_id;sensor_type;location;lat;lon;timestamp;P1;durP1;ratioP1;P2;durP2;ratioP2
211;SDS011;16228;48.800;9.002;2023-05-24T00:02:05;4.63;;;3.63;;
211;SDS011;16228;48.800;9.002;2023-05-24T00:04:32;4.87;;;3.57;;
211;SDS011;16228;48.800;9.002;2023-05-24T00:06:59;5.67;;;3.50;;
211;SDS011;16228;48.800;9.002;2023-05-24T00:09:27;6.97;;;3.40;;
211;SDS011;16228;48.800;9.002;2023-05-24T00:11:55;6.27;;;3.83;;
211;SDS011;16228;48.800;9.002;2023-05-24T00:14:23;3.70;;;3.40;;
211;SDS011;16228;48.800;9.002;2023-05-24T00:16:50;4.17;;;3.20;;
211;SDS011;16228;48.800;9.002;2023-05-24T00:19:18;7.47;;;4.10;;
211;SDS011;16228;48.800;9.002;2023-05-24T00:21:46;4.90;;;3.47;;
211;SDS011;16228;48.800;9.002;2023-05-24T00:24:14;5.80;;;3.77;;
211;SDS011;16228;48.800;9.002;2023-05-24T00:26:42;4.87;;;3.63;;
211;SDS011;16228;48.800;9.002;2023-05-24T00:29:09;4.77;;;4.07;;
211;SDS011;16228;48.800;9.002;2023-05-24T00:31:38;4.60;;;3.73;;
211;SDS011;16228;48.800;9.002;2023-05-24T00:34:05;5.77;;;3.73;;
211;SDS011;16228;48.800;9.002;2023-05-24T00:36:32;5.27;;;4.13;;
211;SDS011;16228;48.800;9.002;2023-05-24T00:39:00;4.83;;;3.77;;
211;SDS011;16228;48.800;9.002;2023-05-24T00:41:28;6.30;;;3.83;;
211;SDS011;16228;48.800;9.002;2023-05-24T00:43:55;7.20;;;3.87;;
211;SDS011;16228;48.800;9.002;2023-05-24T00:46:24;7.53;;;3.73;;
211;SDS011;16228;48.800;9.002;2023-05-24T00:48:55;7.07;;;4.90;;
211;SDS011;16228;48.800;9.002;2023-05-24T00:51:23;7.20;;;4.23;;
211;SDS011;16228;48.800;9.002;2023-05-24T00:53:52;6.27;;;4.13;;
211;SDS011;16228;48.800;9.002;2023-05-24T00:56:19;5.93;;;3.57;;
211;SDS011;16228;48.800;9.002;2023-05-24T00:58:47;6.20;;;3.90;;
211;SDS011;16228;48.800;9.002;2023-05-24T01:01:18;5.00;;;3.50;;
211;SDS011;16228;48.800;9.002;2023-05-24T01:03:49;6.23;;;4.50;;
211;SDS011;16228;48.800;9.002;2023-05-24T01:06:19;8.87;;;3.70;;
211;SDS011;16228;48.800;9.002;2023-05-24T01:08:53;10.57;;;4.03;;
211;SDS011;16228;48.800;9.002;2023-05-24T01:11:34;6.53;;;4.33;;
211;SDS011;16228;48.800;9.002;2023-05-24T01:14:13;5.97;;;3.80;;
211;SDS011;16228;48.800;9.002;2023-05-24T01:16:49;7.67;;;4.80;;
211;SDS011;16228;48.800;9.002;2023-05-24T01:19:28;9.03;;;4.33;;
211;SDS011;16228;48.800;9.002;2023-05-24T01:22:23;7.33;;;3.60;;
211;SDS011;16228;48.800;9.002;2023-05-24T01:25:11;6.13;;;3.80;;
211;SDS011;16228;48.800;9.002;2023-05-24T01:27:45;6.20;;;3.70;;
211;SDS011;16228;48.800;9.002;2023-05-24T01:30:13;5.80;;;3.30;;
211;SDS011;16228;48.800;9.002;2023-05-24T01:32:41;9.40;;;4.33;;
211;SDS011;16228;48.800;9.002;2023-05-24T01:35:08;6.00;;;3.37;;
211;SDS011;16228;48.800;9.002;2023-05-24T01:37:35;8.03;;;4.27;;
211;SDS011;16228;48.800;9.002;2023-05-24T01:40:03;7.53;;;4.07;;
211;SDS011;16228;48.800;9.002;2023-05-24T01:42:33;9.40;;;5.17;;
211;SDS011;16228;48.800;9.002;2023-05-24T01:45:11;8.60;;;6.33;;
211;SDS011;16228;48.800;9.002;2023-05-24T01:47:46;9.57;;;5.23;;
211;SDS011;16228;48.800;9.002;2023-05-24T01:50:25;8.23;;;4.67;;
211;SDS011;16228;48.800;9.002;2023-05-24T01:52:57;8.53;;;4.20;;
211;SDS011;16228;48.800;9.002;2023-05-24T01:55:34;6.20;;;3.70;;
211;SDS011;16228;48.800;9.002;2023-05-24T01:58:03;9.43;;;4.10;;
211;SDS011;16228;48.800;9.002;2023-05-24T02:00:33;5.60;;;3.57;;
211;SDS011;16228;48.800;9.002;2023-05-24T02:03:01;7.67;;;4.20;;
211;SDS011;16228;48.800;9.002;2023-05-24T02:05:30;5.57;;;3.60;;
211;SDS011;16228;48.800;9.002;2023-05-24T02:07:58;8.03;;;3.77;;
211;SDS011;16228;48.800;9.002;2023-05-24T02:10:25;5.47;;;3.93;;
211;SDS011;16228;48.800;9.002;2023-05-24T02:12:52;8.10;;;4.10;;
211;SDS011;16228;48.800;9.002;2023-05-24T02:15:19;5.47;;;3.30;;
211;SDS011;16228;48.800;9.002;2023-05-24T02:17:48;5.53;;;4.03;;
211;SDS011;16228;48.800;9.002;2023-05-24T02:20:18;7.20;;;3.70;;
211;SDS011;16228;48.800;9.002;2023-05-24T02:22:46;8.23;;;3.50;;
211;SDS011;16228;48.800;9.002;2023-05-24T02:25:13;8.47;;;4.00;;
211;SDS011;16228;48.800;9.002;2023-05-24T02:27:41;6.57;;;3.80;;
211;SDS011;16228;48.800;9.002;2023-05-24T02:30:11;6.17;;;3.57;;
211;SDS011;16228;48.800;9.002;2023-05-24T02:32:39;6.00;;;3.70;;
211;SDS011;16228;48.800;9.002;2023-05-24T02:35:10;8.33;;;4.00;;
211;SDS011;16228;48.800;9.002;2023-05-24T02:37:38;9.07;;;3.73;;
211;SDS011;16228;48.800;9.002;2023-05-24T02:40:05;8.30;;;4.13;;
211;SDS011;16228;48.800;9.002;2023-05-24T02:42:33;5.83;;;3.20;;
211;SDS011;16228;48.800;9.002;2023-05-24T02:45:00;9.33;;;4.20;;
211;SDS011;16228;48.800;9.002;2023-05-24T02:47:28;7.33;;;3.80;;
211;SDS011;16228;48.800;9.002;2023-05-24T02:49:55;6.13;;;3.63;;
211;SDS011;16228;48.800;9.002;2023-05-24T02:52:24;7.60;;;3.93;;
211;SDS011;16228;48.800;9.002;2023-05-24T02:54:51;6.70;;;4.37;;
211;SDS011;16228;48.800;9.002;2023-05-24T02:57:18;7.17;;;3.57;;
211;SDS011;16228;48.800;9.002;2023-05-24T02:59:46;8.43;;;4.03;;
211;SDS011;16228;48.800;9.002;2023-05-24T03:02:13;9.57;;;4.57;;
211;SDS011;16228;48.800;9.002;2023-05-24T03:04:40;6.93;;;3.77;;
211;SDS011;16228;48.800;9.002;2023-05-24T03:07:07;8.93;;;3.87;;
211;SDS011;16228;48.800;9.002;2023-05-24T03:09:36;7.60;;;3.87;;
211;SDS011;16228;48.800;9.002;2023-05-24T03:12:03;7.07;;;3.87;;
211;SDS011;16228;48.800;9.002;2023-05-24T03:14:31;11.87;;;4.70;;
211;SDS011;16228;48.800;9.002;2023-05-24T03:16:58;11.40;;;4.30;;
211;SDS011;16228;48.800;9.002;2023-05-24T03:19:25;8.57;;;3.97;;
211;SDS011;16228;48.800;9.002;2023-05-24T03:21:52;7.77;;;3.60;;
211;SDS011;16228;48.800;9.002;2023-05-24T03:24:20;9.27;;;4.07;;
211;SDS011;16228;48.800;9.002;2023-05-24T03:26:48;9.93;;;4.00;;
211;SDS011;16228;48.800;9.002;2023-05-24T03:29:16;9.20;;;4.67;;
211;SDS011;16228;48.800;9.002;2023-05-24T03:31:43;8.73;;;4.60;;
211;SDS011;16228;48.800;9.002;2023-05-24T03:34:10;10.30;;;4.17;;
211;SDS011;16228;48.800;9.002;2023-05-24T03:36:37;7.23;;;3.97;;
211;SDS011;16228;48.800;9.002;2023-05-24T03:39:04;7.73;;;4.20;;
211;SDS011;16228;48.800;9.002;2023-05-24T03:41:32;8.93;;;3.80;;
211;SDS011;16228;48.800;9.002;2023-05-24T03:44:00;8.07;;;4.03;;
211;SDS011;16228;48.800;9.002;2023-05-24T03:46:27;8.47;;;4.63;;
211;SDS011;16228;48.800;9.002;2023-05-24T03:48:54;8.13;;;4.10;;
211;SDS011;16228;48.800;9.002;2023-05-24T03:51:21;9.57;;;3.97;;
211;SDS011;16228;48.800;9.002;2023-05-24T03:53:53;8.40;;;4.70;;
211;SDS011;16228;48.800;9.002;2023-05-24T03:56:21;11.80;;;4.70;;
211;SDS011;16228;48.800;9.002;2023-05-24T03:58:49;10.20;;;4.20;;
211;SDS011;16228;48.800;9.002;2023-05-24T04:01:17;8.77;;;3.83;;
211;SDS011;16228;48.800;9.002;2023-05-24T04:03:45;7.87;;;4.40;;
211;SDS011;16228;48.800;9.002;2023-05-24T04:06:12;10.03;;;5.40;;
211;SDS011;16228;48.800;9.002;2023-05-24T04:08:40;8.20;;;4.40;;
211;SDS011;16228;48.800;9.002;2023-05-24T04:11:07;10.70;;;4.03;;
211;SDS011;16228;48.800;9.002;2023-05-24T04:13:34;8.73;;;3.93;;
211;SDS011;16228;48.800;9.002;2023-05-24T04:16:01;10.03;;;4.40;;
211;SDS011;16228;48.800;9.002;2023-05-24T04:18:30;6.40;;;3.73;;
211;SDS011;16228;48.800;9.002;2023-05-24T04:20:57;8.80;;;4.67;;
211;SDS011;16228;48.800;9.002;2023-05-24T04:23:24;9.73;;;4.77;;
211;SDS011;16228;48.800;9.002;2023-05-24T04:25:51;8.20;;;4.40;;
211;SDS011;16228;48.800;9.002;2023-05-24T04:28:18;10.30;;;4.33;;
211;SDS011;16228;48.800;9.002;2023-05-24T04:30:46;9.73;;;4.57;;
211;SDS011;16228;48.800;9.002;2023-05-24T04:33:13;10.47;;;4.47;;
211;SDS011;16228;48.800;9.002;2023-05-24T04:35:42;7.93;;;4.60;;
211;SDS011;16228;48.800;9.002;2023-05-24T04:38:09;8.67;;;5.03;;
211;SDS011;16228;48.800;9.002;2023-05-24T04:40:37;11.57;;;4.60;;
211;SDS011;16228;48.800;9.002;2023-05-24T04:43:04;8.47;;;4.40;;
211;SDS011;16228;48.800;9.002;2023-05-24T04:45:31;8.57;;;4.67;;
211;SDS011;16228;48.800;9.002;2023-05-24T04:47:58;13.33;;;4.97;;
211;SDS011;16228;48.800;9.002;2023-05-24T04:50:26;6.60;;;4.20;;
211;SDS011;16228;48.800;9.002;2023-05-24T04:52:55;9.97;;;3.93;;
211;SDS011;16228;48.800;9.002;2023-05-24T04:55:22;7.13;;;3.80;;
211;SDS011;16228;48.800;9.002;2023-05-24T04:57:50;10.83;;;4.53;;
211;SDS011;16228;48.800;9.002;2023-05-24T05:00:17;10.77;;;4.87;;
211;SDS011;16228;48.800;9.002;2023-05-24T05:02:45;7.70;;;3.60;;
211;SDS011;16228;48.800;9.002;2023-05-24T05:05:12;12.07;;;4.43;;
211;SDS011;16228;48.800;9.002;2023-05-24T05:07:40;7.10;;;3.73;;
211;SDS011;16228;48.800;9.002;2023-05-24T05:10:09;9.43;;;3.97;;
211;SDS011;16228;48.800;9.002;2023-05-24T05:12:36;8.73;;;4.03;;
211;SDS011;16228;48.800;9.002;2023-05-24T05:15:04;9.10;;;4.07;;
211;SDS011;16228;48.800;9.002;2023-05-24T05:17:32;9.33;;;4.33;;
211;SDS011;16228;48.800;9.002;2023-05-24T05:19:59;12.20;;;4.40;;
211;SDS011;16228;48.800;9.002;2023-05-24T05:22:27;9.63;;;4.17;;
211;SDS011;16228;48.800;9.002;2023-05-24T05:24:54;7.60;;;4.33;;
211;SDS011;16228;48.800;9.002;2023-05-24T05:27:22;14.93;;;4.73;;
211;SDS011;16228;48.800;9.002;2023-05-24T05:29:50;12.63;;;4.57;;
211;SDS011;16228;48.800;9.002;2023-05-24T05:32:17;7.80;;;3.63;;
211;SDS011;16228;48.800;9.002;2023-05-24T05:34:44;12.77;;;4.57;;
211;SDS011;16228;48.800;9.002;2023-05-24T05:37:11;12.17;;;4.23;;
211;SDS011;16228;48.800;9.002;2023-05-24T05:39:39;7.73;;;4.20;;
211;SDS011;16228;48.800;9.002;2023-05-24T05:42:06;9.37;;;4.23;;
211;SDS011;16228;48.800;9.002;2023-05-24T05:44:34;10.47;;;4.73;;
211;SDS011;16228;48.800;9.002;2023-05-24T05:47:01;12.10;;;4.70;;
211;SDS011;16228;48.800;9.002;2023-05-24T05:49:31;9.63;;;4.30;;
211;SDS011;16228;48.800;9.002;2023-05-24T05:52:00;14.63;;;4.37;;
211;SDS011;16228;48.800;9.002;2023-05-24T05:54:27;8.37;;;3.80;;
211;SDS011;16228;48.800;9.002;2023-05-24T05:56:55;9.80;;;4.03;;
211;SDS011;16228;48.800;9.002;2023-05-24T05:59:22;11.23;;;4.60;;
211;SDS011;16228;48.800;9.002;2023-05-24T06:01:51;10.70;;;4.17;;
211;SDS011;16228;48.800;9.002;2023-05-24T06:04:18;16.33;;;5.27;;
211;SDS011;16228;48.800;9.002;2023-05-24T06:06:45;9.47;;;4.23;;
211;SDS011;16228;48.800;9.002;2023-05-24T06:09:14;9.13;;;3.70;;
211;SDS011;16228;48.800;9.002;2023-05-24T06:11:41;8.77;;;3.93;;
211;SDS011;16228;48.800;9.002;2023-05-24T06:14:09;7.27;;;3.60;;
211;SDS011;16228;48.800;9.002;2023-05-24T06:16:37;10.50;;;4.27;;
211;SDS011;16228;48.800;9.002;2023-05-24T06:19:09;10.23;;;4.37;;
211;SDS011;16228;48.800;9.002;2023-05-24T06:21:36;13.47;;;4.30;;
211;SDS011;16228;48.800;9.002;2023-05-24T06:24:05;9.17;;;3.80;;
211;SDS011;16228;48.800;9.002;2023-05-24T06:26:34;13.53;;;4.87;;
211;SDS011;16228;48.800;9.002;2023-05-24T06:29:02;10.47;;;4.87;;
211;SDS011;16228;48.800;9.002;2023-05-24T06:31:29;12.47;;;3.80;;
211;SDS011;16228;48.800;9.002;2023-05-24T06:33:57;10.73;;;4.40;;
211;SDS011;16228;48.800;9.002;2023-05-24T06:36:25;10.70;;;4.27;;
211;SDS011;16228;48.800;9.002;2023-05-24T06:38:53;9.07;;;3.83;;
211;SDS011;16228;48.800;9.002;2023-05-24T06:41:20;9.87;;;3.80;;
211;SDS011;16228;48.800;9.002;2023-05-24T06:43:47;11.87;;;3.67;;
211;SDS011;16228;48.800;9.002;2023-05-24T06:46:15;9.90;;;3.83;;
211;SDS011;16228;48.800;9.002;2023-05-24T06:48:42;9.47;;;3.60;;
211;SDS011;16228;48.800;9.002;2023-05-24T06:51:09;12.70;;;4.67;;
211;SDS011;16228;48.800;9.002;2023-05-24T06:53:37;7.03;;;3.60;;
211;SDS011;16228;48.800;9.002;2023-05-24T06:56:05;10.97;;;4.30;;
211;SDS011;16228;48.800;9.002;2023-05-24T06:58:33;10.10;;;4.23;;
211;SDS011;16228;48.800;9.002;2023-05-24T07:01:00;8.20;;;4.10;;
211;SDS011;16228;48.800;9.002;2023-05-24T07:03:28;8.47;;;4.37;;
211;SDS011;16228;48.800;9.002;2023-05-24T07:05:56;9.80;;;4.17;;
211;SDS011;16228;48.800;9.002;2023-05-24T07:08:23;7.30;;;3.97;;
211;SDS011;16228;48.800;9.002;2023-05-24T07:10:52;11.63;;;4.00;;
211;SDS011;16228;48.800;9.002;2023-05-24T07:13:20;12.00;;;4.20;;
211;SDS011;16228;48.800;9.002;2023-05-24T07:15:48;11.07;;;4.23;;
211;SDS011;16228;48.800;9.002;2023-05-24T07:18:15;6.77;;;3.93;;
211;SDS011;16228;48.800;9.002;2023-05-24T07:20:43;14.17;;;5.13;;
211;SDS011;16228;48.800;9.002;2023-05-24T07:23:10;10.73;;;4.60;;
211;SDS011;16228;48.800;9.002;2023-05-24T07:25:37;11.20;;;4.20;;
211;SDS011;16228;48.800;9.002;2023-05-24T07:28:05;10.67;;;4.90;;
211;SDS011;16228;48.800;9.002;2023-05-24T07:30:32;9.47;;;3.90;;
211;SDS011;16228;48.800;9.002;2023-05-24T07:33:00;9.20;;;3.47;;
211;SDS011;16228;48.800;9.002;2023-05-24T07:35:27;9.53;;;4.20;;
211;SDS011;16228;48.800;9.002;2023-05-24T07:37:55;8.47;;;3.93;;
211;SDS011;16228;48.800;9.002;2023-05-24T07:40:22;9.77;;;3.97;;
211;SDS011;16228;48.800;9.002;2023-05-24T07:42:49;10.57;;;4.10;;
211;SDS011;16228;48.800;9.002;2023-05-24T07:45:18;11.27;;;4.13;;
211;SDS011;16228;48.800;9.002;2023-05-24T07:47:45;8.07;;;3.63;;
211;SDS011;16228;48.800;9.002;2023-05-24T07:50:12;11.00;;;3.80;;
211;SDS011;16228;48.800;9.002;2023-05-24T07:52:40;7.97;;;3.90;;
211;SDS011;16228;48.800;9.002;2023-05-24T07:55:07;10.13;;;4.33;;
211;SDS011;16228;48.800;9.002;2023-05-24T07:57:35;10.13;;;4.00;;
211;SDS011;16228;48.800;9.002;2023-05-24T08:00:03;8.57;;;3.97;;
211;SDS011;16228;48.800;9.002;2023-05-24T08:02:40;15.30;;;4.37;;
211;SDS011;16228;48.800;9.002;2023-05-24T08:05:09;6.53;;;3.40;;
211;SDS011;16228;48.800;9.002;2023-05-24T08:07:37;9.80;;;3.70;;
211;SDS011;16228;48.800;9.002;2023-05-24T08:10:05;11.07;;;4.67;;
211;SDS011;16228;48.800;9.002;2023-05-24T08:12:33;10.07;;;4.23;;
211;SDS011;16228;48.800;9.002;2023-05-24T08:15:00;8.43;;;4.43;;
211;SDS011;16228;48.800;9.002;2023-05-24T08:17:27;10.33;;;3.43;;
211;SDS011;16228;48.800;9.002;2023-05-24T08:19:57;12.43;;;4.50;;
211;SDS011;16228;48.800;9.002;2023-05-24T08:22:24;8.93;;;3.47;;
211;SDS011;16228;48.800;9.002;2023-05-24T08:24:51;9.20;;;3.80;;
211;SDS011;16228;48.800;9.002;2023-05-24T08:27:18;9.20;;;4.43;;
211;SDS011;16228;48.800;9.002;2023-05-24T08:29:46;10.00;;;4.60;;
211;SDS011;16228;48.800;9.002;2023-05-24T08:32:13;8.37;;;4.03;;
211;SDS011;16228;48.800;9.002;2023-05-24T08:34:41;10.10;;;4.07;;
211;SDS011;16228;48.800;9.002;2023-05-24T08:37:10;13.57;;;3.80;;
211;SDS011;16228;48.800;9.002;2023-05-24T08:39:39;10.23;;;4.53;;
211;SDS011;16228;48.800;9.002;2023-05-24T08:42:06;7.17;;;3.50;;
211;SDS011;16228;48.800;9.002;2023-05-24T08:44:35;9.13;;;3.57;;
211;SDS011;16228;48.800;9.002;2023-05-24T08:47:12;7.67;;;3.80;;
211;SDS011;16228;48.800;9.002;2023-05-24T08:49:40;8.83;;;4.00;;
211;SDS011;16228;48.800;9.002;2023-05-24T08:52:07;8.80;;;3.97;;
211;SDS011;16228;48.800;9.002;2023-05-24T08:54:37;10.37;;;3.53;;
211;SDS011;16228;48.800;9.002;2023-05-24T08:57:07;13.57;;;4.40;;
211;SDS011;16228;48.800;9.002;2023-05-24T08:59:36;11.90;;;4.33;;
211;SDS011;16228;48.800;9.002;2023-05-24T09:02:05;13.60;;;4.13;;
211;SDS011;16228;48.800;9.002;2023-05-24T09:04:34;9.77;;;4.13;;
211;SDS011;16228;48.800;9.002;2023-05-24T09:07:03;9.00;;;3.37;;
211;SDS011;16228;48.800;9.002;2023-05-24T09:09:34;14.63;;;4.83;;
211;SDS011;16228;48.800;9.002;2023-05-24T09:12:08;10.67;;;4.03;;
211;SDS011;16228;48.800;9.002;2023-05-24T09:14:40;9.83;;;4.20;;
211;SDS011;16228;48.800;9.002;2023-05-24T09:17:11;10.97;;;4.20;;
211;SDS011;16228;48.800;9.002;2023-05-24T09:19:41;10.03;;;4.03;;
211;SDS011;16228;48.800;9.002;2023-05-24T09:22:11;9.03;;;4.23;;
211;SDS011;16228;48.800;9.002;2023-05-24T09:24:41;9.87;;;4.60;;
211;SDS011;16228;48.800;9.002;2023-05-24T09:27:08;10.17;;;4.10;;
211;SDS011;16228;48.800;9.002;2023-05-24T09:29:35;11.50;;;4.37;;
211;SDS011;16228;48.800;9.002;2023-05-24T09:32:03;10.70;;;4.07;;
211;SDS011;16228;48.800;9.002;2023-05-24T09:34:37;9.20;;;4.00;;
211;SDS011;16228;48.800;9.002;2023-05-24T09:37:05;10.60;;;4.50;;
211;SDS011;16228;48.800;9.002;2023-05-24T09:39:38;8.37;;;4.00;;
211;SDS011;16228;48.800;9.002;2023-05-24T09:42:07;14.33;;;4.50;;
211;SDS011;16228;48.800;9.002;2023-05-24T09:44:34;12.30;;;5.03;;
211;SDS011;16228;48.800;9.002;2023-05-24T09:47:02;8.90;;;3.90;;
211;SDS011;16228;48.800;9.002;2023-05-24T09:49:30;11.33;;;3.87;;
211;SDS011;16228;48.800;9.002;2023-05-24T09:51:57;9.63;;;4.30;;
211;SDS011;16228;48.800;9.002;2023-05-24T09:54:24;9.50;;;4.10;;
211;SDS011;16228;48.800;9.002;2023-05-24T09:56:53;9.07;;;3.97;;
211;SDS011;16228;48.800;9.002;2023-05-24T09:59:20;13.87;;;3.50;;
211;SDS011;16228;48.800;9.002;2023-05-24T10:01:48;9.27;;;3.60;;
211;SDS011;16228;48.800;9.002;2023-05-24T10:04:18;12.77;;;4.40;;
211;SDS011;16228;48.800;9.002;2023-05-24T10:06:57;12.13;;;4.80;;
211;SDS011;16228;48.800;9.002;2023-05-24T10:09:26;8.30;;;4.07;;
211;SDS011;16228;48.800;9.002;2023-05-24T10:12:00;11.17;;;4.33;;
211;SDS011;16228;48.800;9.002;2023-05-24T10:14:31;8.43;;;4.20;;
211;SDS011;16228;48.800;9.002;2023-05-24T10:17:00;10.67;;;4.50;;
211;SDS011;16228;48.800;9.002;2023-05-24T10:19:28;7.00;;;3.93;;
211;SDS011;16228;48.800;9.002;2023-05-24T10:21:55;9.03;;;4.53;;
211;SDS011;16228;48.800;9.002;2023-05-24T10:24:24;12.70;;;4.93;;
211;SDS011;16228;48.800;9.002;2023-05-24T10:26:55;10.53;;;4.00;;
211;SDS011;16228;48.800;9.002;2023-05-24T10:29:26;13.77;;;4.40;;
211;SDS011;16228;48.800;9.002;2023-05-24T10:32:00;8.80;;;3.93;;
211;SDS011;16228;48.800;9.002;2023-05-24T10:34:29;12.47;;;5.67;;
211;SDS011;16228;48.800;9.002;2023-05-24T10:36:57;10.33;;;4.50;;
211;SDS011;16228;48.800;9.002;2023-05-24T10:39:26;9.40;;;3.37;;
211;SDS011;16228;48.800;9.002;2023-05-24T10:41:54;8.80;;;4.07;;
211;SDS011;16228;48.800;9.002;2023-05-24T10:44:22;8.00;;;3.77;;
211;SDS011;16228;48.800;9.002;2023-05-24T10:47:05;12.33;;;3.70;;
211;SDS011;16228;48.800;9.002;2023-05-24T10:49:34;9.27;;;3.63;;
211;SDS011;16228;48.800;9.002;2023-05-24T10:52:05;9.03;;;3.33;;
211;SDS011;16228;48.800;9.002;2023-05-24T10:54:34;11.03;;;4.20;;
211;SDS011;16228;48.800;9.002;2023-05-24T10:57:02;11.47;;;4.43;;
211;SDS011;16228;48.800;9.002;2023-05-24T10:59:33;7.63;;;4.50;;
211;SDS011;16228;48.800;9.002;2023-05-24T11:02:03;7.07;;;3.13;;
211;SDS011;16228;48.800;9.002;2023-05-24T11:04:37;11.47;;;4.10;;
211;SDS011;16228;48.800;9.002;2023-05-24T11:07:07;9.63;;;4.20;;
211;SDS011;16228;48.800;9.002;2023-05-24T11:09:36;6.77;;;3.70;;
211;SDS011;16228;48.800;9.002;2023-05-24T11:12:11;11.17;;;3.47;;
211;SDS011;16228;48.800;9.002;2023-05-24T11:14:46;8.53;;;3.57;;
211;SDS011;16228;48.800;9.002;2023-05-24T11:17:14;8.50;;;3.93;;
211;SDS011;16228;48.800;9.002;2023-05-24T11:19:46;6.73;;;3.40;;
211;SDS011;16228;48.800;9.002;2023-05-24T11:22:15;8.43;;;3.50;;
211;SDS011;16228;48.800;9.002;2023-05-24T11:24:42;6.87;;;2.90;;
211;SDS011;16228;48.800;9.002;2023-05-24T11:27:11;7.57;;;3.57;;
211;SDS011;16228;48.800;9.002;2023-05-24T11:29:39;7.87;;;3.47;;
211;SDS011;16228;48.800;9.002;2023-05-24T11:32:08;7.80;;;3.13;;
211;SDS011;16228;48.800;9.002;2023-05-24T11:34:35;7.90;;;3.40;;
211;SDS011;16228;48.800;9.002;2023-05-24T11:37:04;8.40;;;3.20;;
211;SDS011;16228;48.800;9.002;2023-05-24T11:39:32;6.63;;;3.10;;
211;SDS011;16228;48.800;9.002;2023-05-24T11:42:00;5.73;;;3.07;;
211;SDS011;16228;48.800;9.002;2023-05-24T11:44:31;8.03;;;2.93;;
211;SDS011;16228;48.800;9.002;2023-05-24T11:46:58;6.60;;;3.03;;
211;SDS011;16228;48.800;9.002;2023-05-24T11:49:27;6.43;;;2.87;;
211;SDS011;16228;48.800;9.002;2023-05-24T11:51:55;6.07;;;2.90;;
211;SDS011;16228;48.800;9.002;2023-05-24T11:54:24;6.67;;;2.40;;
211;SDS011;16228;48.800;9.002;2023-05-24T11:56:52;5.93;;;2.70;;
211;SDS011;16228;48.800;9.002;2023-05-24T11:59:21;6.25;;;3.20;;
211;SDS011;16228;48.800;9.002;2023-05-24T12:01:50;8.10;;;3.28;;
211;SDS011;16228;48.800;9.002;2023-05-24T12:04:24;5.20;;;2.60;;
211;SDS011;16228;48.800;9.002;2023-05-24T12:06:53;4.93;;;2.77;;
211;SDS011;16228;48.800;9.002;2023-05-24T12:09:21;11.33;;;3.60;;
211;SDS011;16228;48.800;9.002;2023-05-24T12:11:49;7.20;;;3.03;;
211;SDS011;16228;48.800;9.002;2023-05-24T12:14:18;7.38;;;2.95;;
211;SDS011;16228;48.800;9.002;2023-05-24T12:16:47;7.17;;;2.50;;
211;SDS011;16228;48.800;9.002;2023-05-24T12:19:15;5.97;;;2.93;;
211;SDS011;16228;48.800;9.002;2023-05-24T12:21:43;8.77;;;3.10;;
211;SDS011;16228;48.800;9.002;2023-05-24T12:24:14;5.20;;;2.53;;
211;SDS011;16228;48.800;9.002;2023-05-24T12:26:44;7.83;;;3.13;;
211;SDS011;16228;48.800;9.002;2023-05-24T12:29:13;6.50;;;2.87;;
211;SDS011;16228;48.800;9.002;2023-05-24T12:31:42;6.97;;;2.80;;
211;SDS011;16228;48.800;9.002;2023-05-24T12:34:12;7.70;;;3.20;;
211;SDS011;16228;48.800;9.002;2023-05-24T12:36:41;7.03;;;2.90;;
211;SDS011;16228;48.800;9.002;2023-05-24T12:39:20;8.63;;;3.57;;
211;SDS011;16228;48.800;9.002;2023-05-24T12:41:51;6.80;;;2.93;;
211;SDS011;16228;48.800;9.002;2023-05-24T12:44:23;7.80;;;3.37;;
211;SDS011;16228;48.800;9.002;2023-05-24T12:46:51;9.43;;;3.10;;
211;SDS011;16228;48.800;9.002;2023-05-24T12:49:19;6.97;;;3.17;;
211;SDS011;16228;48.800;9.002;2023-05-24T12:51:47;9.50;;;3.23;;
211;SDS011;16228;48.800;9.002;2023-05-24T12:54:14;7.20;;;3.10;;
211;SDS011;16228;48.800;9.002;2023-05-24T12:56:44;4.60;;;2.30;;
211;SDS011;16228;48.800;9.002;2023-05-24T12:59:12;8.50;;;2.83;;
211;SDS011;16228;48.800;9.002;2023-05-24T13:01:39;5.50;;;2.90;;
211;SDS011;16228;48.800;9.002;2023-05-24T13:04:08;7.63;;;2.80;;
211;SDS011;16228;48.800;9.002;2023-05-24T13:06:36;5.60;;;2.87;;
211;SDS011;16228;48.800;9.002;2023-05-24T13:09:03;6.47;;;3.03;;
211;SDS011;16228;48.800;9.002;2023-05-24T13:11:31;6.47;;;2.50;;
211;SDS011;16228;48.800;9.002;2023-05-24T13:13:59;10.23;;;2.90;;
211;SDS011;16228;48.800;9.002;2023-05-24T13:16:27;6.77;;;2.80;;
211;SDS011;16228;48.800;9.002;2023-05-24T13:18:55;8.20;;;3.13;;
211;SDS011;16228;48.800;9.002;2023-05-24T13:21:22;5.23;;;2.60;;
211;SDS011;16228;48.800;9.002;2023-05-24T13:23:49;8.17;;;3.13;;
211;SDS011;16228;48.800;9.002;2023-05-24T13:26:17;9.00;;;3.10;;
211;SDS011;16228;48.800;9.002;2023-05-24T13:28:44;6.27;;;2.50;;
211;SDS011;16228;48.800;9.002;2023-05-24T13:31:13;6.33;;;2.53;;
211;SDS011;16228;48.800;9.002;2023-05-24T13:33:40;7.17;;;2.77;;
211;SDS011;16228;48.800;9.002;2023-05-24T13:36:07;6.37;;;2.73;;
211;SDS011;16228;48.800;9.002;2023-05-24T13:38:34;6.20;;;2.80;;
211;SDS011;16228;48.800;9.002;2023-05-24T13:41:01;7.57;;;2.53;;
211;SDS011;16228;48.800;9.002;2023-05-24T13:43:29;6.30;;;2.70;;
211;SDS011;16228;48.800;9.002;2023-05-24T13:45:56;5.37;;;2.63;;
211;SDS011;16228;48.800;9.002;2023-05-24T13:48:25;6.37;;;2.53;;
211;SDS011;16228;48.800;9.002;2023-05-24T13:50:52;4.83;;;2.53;;
211;SDS011;16228;48.800;9.002;2023-05-24T13:53:19;5.13;;;2.77;;
211;SDS011;16228;48.800;9.002;2023-05-24T13:55:47;7.57;;;2.73;;
211;SDS011;16228;48.800;9.002;2023-05-24T13:58:14;4.63;;;2.10;;
211;SDS011;16228;48.800;9.002;2023-05-24T14:00:42;6.47;;;2.60;;
211;SDS011;16228;48.800;9.002;2023-05-24T14:03:09;5.10;;;2.67;;
211;SDS011;16228;48.800;9.002;2023-05-24T14:05:38;8.67;;;2.80;;
211;SDS011;16228;48.800;9.002;2023-05-24T14:08:05;6.53;;;2.50;;
211;SDS011;16228;48.800;9.002;2023-05-24T14:10:33;6.20;;;2.50;;
211;SDS011;16228;48.800;9.002;2023-05-24T14:13:01;7.77;;;2.53;;
211;SDS011;16228;48.800;9.002;2023-05-24T14:15:29;5.10;;;2.70;;
211;SDS011;16228;48.800;9.002;2023-05-24T14:17:56;6.80;;;2.40;;
211;SDS011;16228;48.800;9.002;2023-05-24T14:20:25;7.30;;;2.67;;
211;SDS011;16228;48.800;9.002;2023-05-24T14:22:53;4.70;;;2.23;;
211;SDS011;16228;48.800;9.002;2023-05-24T14:25:20;5.17;;;2.50;;
211;SDS011;16228;48.800;9.002;2023-05-24T14:27:47;4.53;;;2.70;;
211;SDS011;16228;48.800;9.002;2023-05-24T14:30:15;4.80;;;2.40;;
211;SDS011;16228;48.800;9.002;2023-05-24T14:32:42;5.20;;;2.30;;
211;SDS011;16228;48.800;9.002;2023-05-24T14:35:09;6.17;;;2.33;;
211;SDS011;16228;48.800;9.002;2023-05-24T14:37:36;7.53;;;2.37;;
211;SDS011;16228;48.800;9.002;2023-05-24T14:40:06;5.23;;;3.03;;
211;SDS011;16228;48.800;9.002;2023-05-24T14:42:34;8.00;;;2.60;;
211;SDS011;16228;48.800;9.002;2023-05-24T14:45:01;9.63;;;2.40;;
211;SDS011;16228;48.800;9.002;2023-05-24T14:47:29;7.07;;;2.40;;
211;SDS011;16228;48.800;9.002;2023-05-24T14:49:56;5.50;;;2.50;;
211;SDS011;16228;48.800;9.002;2023-05-24T14:52:23;5.23;;;2.57;;
211;SDS011;16228;48.800;9.002;2023-05-24T14:54:50;7.77;;;2.33;;
211;SDS011;16228;48.800;9.002;2023-05-24T14:57:19;5.07;;;2.33;;
211;SDS011;16228;48.800;9.002;2023-05-24T14:59:46;5.90;;;2.63;;
211;SDS011;16228;48.800;9.002;2023-05-24T15:02:13;6.10;;;2.90;;
211;SDS011;16228;48.800;9.002;2023-05-24T15:04:40;7.10;;;2.47;;
211;SDS011;16228;48.800;9.002;2023-05-24T15:07:08;5.63;;;2.13;;
211;SDS011;16228;48.800;9.002;2023-05-24T15:09:35;6.83;;;2.50;;
211;SDS011;16228;48.800;9.002;2023-05-24T15:12:03;7.07;;;2.47;;
211;SDS011;16228;48.800;9.002;2023-05-24T15:14:33;5.47;;;2.20;;
211;SDS011;16228;48.800;9.002;2023-05-24T15:17:01;6.43;;;2.03;;
211;SDS011;16228;48.800;9.002;2023-05-24T15:19:28;7.07;;;2.63;;
211;SDS011;16228;48.800;9.002;2023-05-24T15:21:56;5.80;;;2.30;;